SCQE weather

Quenac Airport
Isla Quenac, Los Lagos Region, Chile

Public forecast

Using degrees Celsius for public forecast. Weather courtesy of forecast.io.

Closest aviation weather report (METAR) to Quenac Airport

Closest report is Mocopulli Airport, 18.5 nm (34.2 km) WNW. Retrieved 2019/10/13 23:00 UTC (59 minutes ago):

SCPQ 132300Z AUTO 16010KT CAVOK 12/03 Q1022

Closest aviation forecast (TAF) to Quenac Airport

Forecast is more than 6 hours old.

Closest forecast is Mocopulli Airport, 18.5 nm (34.2 km) WNW. Retrieved 2019/10/13 12:00 UTC (12 hours ago):

TAF SCPQ 131047Z 1312/1324 19015KT CAVOK TN04/1312Z TX14/1319Z BECMG 1314/1316 15020KT